createdAt,value
2018-01-08T00:28:53.434Z,43.22
2018-01-08T00:34:06.933Z,43.38
2018-01-08T00:39:14.357Z,42.08
2018-01-08T00:44:20.669Z,42.30
2018-01-08T00:51:59.965Z,46.67
2018-01-08T01:05:05.441Z,42.00
2018-01-08T01:28:12.269Z,35.85
2018-01-08T01:33:22.025Z,35.88
2018-01-08T01:35:51.124Z,41.35
2018-01-08T01:43:43.369Z,37.95
2018-01-08T01:53:54.204Z,34.67
2018-01-08T02:01:35.294Z,38.85
2018-01-08T02:12:07.029Z,30.20
2018-01-08T02:14:46.137Z,35.50
2018-01-08T02:17:14.912Z,33.05
2018-01-08T02:19:44.421Z,29.20
2018-01-08T02:24:58.060Z,31.90
2018-01-08T02:32:46.914Z,34.13
2018-01-08T02:35:18.976Z,31.73
2018-01-08T02:50:42.925Z,37.63
2018-01-08T02:53:17.018Z,30.52
2018-01-08T03:06:17.141Z,30.52
2018-01-08T03:08:51.556Z,29.37
2018-01-08T03:21:47.410Z,29.08
2018-01-08T03:24:17.537Z,25.40
2018-01-08T03:32:24.449Z,24.10
2018-01-08T03:37:27.113Z,30.17
2018-01-08T03:42:36.864Z,32.30
2018-01-08T03:45:05.152Z,26.52
2018-01-08T03:47:36.936Z,29.48
2018-01-08T03:57:54.551Z,28.23
2018-01-08T04:03:22.829Z,27.35
2018-01-08T04:16:11.872Z,31.65
2018-01-08T04:26:30.001Z,26.08
2018-01-08T04:29:04.009Z,23.65
2018-01-08T04:34:19.898Z,23.83
2018-01-08T04:41:54.776Z,25.48
2018-01-08T04:44:34.484Z,28.58
2018-01-08T04:47:07.212Z,24.60
2018-01-08T05:07:40.244Z,26.27
2018-01-08T05:17:58.732Z,28.45
2018-01-08T05:28:29.572Z,28.87
2018-01-08T05:33:39.336Z,31.77
2018-01-08T05:41:23.878Z,24.92
2018-01-08T05:59:46.704Z,25.40
2018-01-08T06:05:07.036Z,27.35
2018-01-08T06:23:11.516Z,25.55
2018-01-08T06:25:41.619Z,21.95
2018-01-08T06:28:11.107Z,23.20
2018-01-08T06:30:40.279Z,19.48
2018-01-08T06:33:10.531Z,26.60
2018-01-08T06:35:38.895Z,25.62
2018-01-08T06:38:10.419Z,21.35
2018-01-08T06:40:43.695Z,22.48
2018-01-08T06:43:13.824Z,19.65
2018-01-08T06:50:53.547Z,23.90
2018-01-08T06:53:28.271Z,25.62
2018-01-08T06:58:30.663Z,27.33
2018-01-08T07:01:01.424Z,20.67
2018-01-08T07:06:05.595Z,28.17
2018-01-08T07:08:37.087Z,25.10
2018-01-08T07:11:09.774Z,28.05
2018-01-08T07:13:46.087Z,21.98
2018-01-08T07:16:14.115Z,22.13
2018-01-08T07:18:47.615Z,26.02
2018-01-08T07:21:18.315Z,23.98
2018-01-08T07:23:48.359Z,24.73
2018-01-08T07:26:21.612Z,23.77
2018-01-08T07:31:47.663Z,26.62
2018-01-08T07:34:29.142Z,22.60
2018-01-08T07:37:00.255Z,22.58
2018-01-08T07:39:30.195Z,26.00
2018-01-08T07:42:01.999Z,22.27
2018-01-08T07:44:30.242Z,23.75
2018-01-08T07:46:59.207Z,22.23
2018-01-08T07:49:29.234Z,29.77
2018-01-08T07:51:59.155Z,22.73
2018-01-08T07:54:33.378Z,22.87
2018-01-08T07:57:06.339Z,21.27
2018-01-08T07:59:35.367Z,24.75
2018-01-08T08:02:08.799Z,24.58
2018-01-08T08:04:38.723Z,21.00
2018-01-08T08:07:21.567Z,25.95
2018-01-08T08:09:57.415Z,21.80
2018-01-08T08:12:26.339Z,25.05
2018-01-08T08:14:55.134Z,26.85
2018-01-08T08:17:27.140Z,22.35
2018-01-08T08:19:59.767Z,20.58
2018-01-08T08:22:33.406Z,23.05
2018-01-08T08:28:01.584Z,26.52
2018-01-08T08:30:30.531Z,22.70
2018-01-08T08:32:58.547Z,20.52
2018-01-08T08:35:26.618Z,21.30
2018-01-08T08:37:57.727Z,19.25
2018-01-08T08:40:31.360Z,24.50
2018-01-08T08:43:04.043Z,23.70
2018-01-08T08:45:33.795Z,19.95
2018-01-08T08:48:03.835Z,22.48
2018-01-08T08:50:39.899Z,22.30
2018-01-08T08:53:08.815Z,27.02
2018-01-08T08:55:45.023Z,24.63
2018-01-08T08:58:20.747Z,23.05
2018-01-08T09:00:55.235Z,20.48
2018-01-08T09:03:25.003Z,23.17
2018-01-08T09:06:05.555Z,20.88
2018-01-08T09:08:35.524Z,19.27
2018-01-08T09:11:04.443Z,25.48
2018-01-08T09:13:38.863Z,18.80
2018-01-08T09:16:10.799Z,18.20
2018-01-08T09:18:39.755Z,19.58
2018-01-08T09:21:11.350Z,19.50
2018-01-08T09:23:39.375Z,23.05
2018-01-08T09:26:19.187Z,21.40
2018-01-08T09:28:52.215Z,20.25
2018-01-08T09:31:31.814Z,24.10
2018-01-08T09:34:05.575Z,21.67
2018-01-08T09:36:44.967Z,20.92
2018-01-08T09:39:19.755Z,20.33
2018-01-08T09:41:47.806Z,22.90
2018-01-08T09:44:16.627Z,20.48
2018-01-08T09:47:03.519Z,18.83
2018-01-08T09:49:32.530Z,18.37
2018-01-08T09:52:00.566Z,26.42
2018-01-08T09:57:41.363Z,18.92
2018-01-08T10:00:13.895Z,18.25
2018-01-08T10:02:54.174Z,18.67
2018-01-08T10:05:34.983Z,19.00
2018-01-08T10:08:15.878Z,18.27
2018-01-08T10:10:55.683Z,19.40
2018-01-08T10:13:38.178Z,20.50
2018-01-08T10:16:22.066Z,22.55
2018-01-08T10:22:04.375Z,20.80
2018-01-08T10:24:47.397Z,17.77
2018-01-08T10:27:18.722Z,18.10
2018-01-08T10:30:04.814Z,22.65
2018-01-08T10:32:41.832Z,20.23
2018-01-08T10:35:31.022Z,20.05
2018-01-08T10:38:00.079Z,16.10
2018-01-08T10:40:35.243Z,19.02
2018-01-08T10:43:09.834Z,20.45
2018-01-08T10:45:52.066Z,17.85
2018-01-08T10:48:25.622Z,23.02
2018-01-08T10:51:02.602Z,17.73
2018-01-08T10:53:32.398Z,21.50
2018-01-08T10:56:02.333Z,17.10
2018-01-08T10:58:31.337Z,21.42
2018-01-08T11:01:08.053Z,20.48
2018-01-08T11:03:45.938Z,19.80
2018-01-08T11:06:24.961Z,22.70
2018-01-08T11:08:53.006Z,18.52
2018-01-08T11:11:25.790Z,22.70
2018-01-08T11:13:57.511Z,16.98
2018-01-08T11:19:02.214Z,17.50
2018-01-08T11:21:40.884Z,15.05
2018-01-08T11:24:11.630Z,18.00
2018-01-08T11:26:43.706Z,22.02
2018-01-08T11:29:12.766Z,19.87
2018-01-08T11:31:44.030Z,15.45
2018-01-08T11:34:12.277Z,20.12
2018-01-08T11:36:40.330Z,20.17
2018-01-08T11:39:30.094Z,16.15
2018-01-08T11:42:01.702Z,17.10
2018-01-08T11:44:44.862Z,17.23
2018-01-08T11:47:13.286Z,17.50
2018-01-08T11:49:51.934Z,17.17
2018-01-08T11:52:25.801Z,21.35
2018-01-08T11:54:54.742Z,15.63
2018-01-08T11:57:24.074Z,14.35
2018-01-08T11:59:58.629Z,17.45
2018-01-08T12:02:31.502Z,15.27
2018-01-08T12:05:01.566Z,14.25
2018-01-08T12:07:30.570Z,13.82
2018-01-08T12:10:00.574Z,11.90
2018-01-08T12:12:38.917Z,13.62
2018-01-08T12:15:12.693Z,13.60
2018-01-08T12:17:44.961Z,12.88
2018-01-08T12:20:14.124Z,11.12
2018-01-08T12:22:42.925Z,14.27
2018-01-08T12:25:16.645Z,11.35
2018-01-08T12:27:44.689Z,12.52
2018-01-08T12:32:53.561Z,13.07
2018-01-08T12:35:27.542Z,13.00
2018-01-08T12:37:57.337Z,10.95
2018-01-08T12:40:31.805Z,11.85
2018-01-08T12:43:01.818Z,14.07
2018-01-08T12:45:29.853Z,17.20
2018-01-08T12:48:02.777Z,19.15
2018-01-08T12:53:17.717Z,14.75
2018-01-08T12:55:50.753Z,18.27
2018-01-08T12:58:18.818Z,12.03
2018-01-08T13:00:52.049Z,14.13
2018-01-08T13:03:20.973Z,15.73
2018-01-08T13:05:51.053Z,12.30
2018-01-08T13:08:31.039Z,14.63
2018-01-08T13:10:59.173Z,14.80
2018-01-08T13:13:31.685Z,18.50
2018-01-08T13:16:00.645Z,14.13
2018-01-08T13:18:29.581Z,25.30
2018-01-08T13:20:58.965Z,22.73
2018-01-08T13:23:31.290Z,20.23
2018-01-08T13:28:34.717Z,13.07
2018-01-08T13:31:03.684Z,13.35
2018-01-08T13:33:31.753Z,12.55
2018-01-08T13:36:00.807Z,11.20
2018-01-08T13:38:28.821Z,14.17
2018-01-08T13:41:02.564Z,14.95
2018-01-08T13:43:34.323Z,13.63
2018-01-08T13:46:02.397Z,14.20
2018-01-08T13:48:33.153Z,14.67
2018-01-08T13:51:02.125Z,14.60
2018-01-08T13:56:13.277Z,19.47
2018-01-08T13:58:41.325Z,17.67
2018-01-08T14:03:41.589Z,17.10
2018-01-08T14:08:45.937Z,12.70
2018-01-08T14:11:14.881Z,12.47
2018-01-08T14:13:43.841Z,26.20
2018-01-08T14:16:12.637Z,16.03
2018-01-08T14:18:43.485Z,18.20
2018-01-08T14:21:12.349Z,12.63
2018-01-08T14:23:40.401Z,15.33
2018-01-08T14:26:10.429Z,14.87
2018-01-08T14:28:45.269Z,10.07
2018-01-08T14:31:14.293Z,14.53
2018-01-08T14:33:44.284Z,14.60
2018-01-08T14:36:15.700Z,13.43
2018-01-08T14:38:44.933Z,11.90
2018-01-08T14:41:13.009Z,13.52
2018-01-08T14:43:45.081Z,14.90
2018-01-08T14:46:13.156Z,14.13
2018-01-08T14:48:41.220Z,16.50
2018-01-08T14:51:11.228Z,18.15
2018-01-08T14:53:44.127Z,17.52
2018-01-08T14:56:13.089Z,16.45
2018-01-08T14:58:41.144Z,14.90
2018-01-08T15:01:13.149Z,12.50
2018-01-08T15:03:42.125Z,12.90
2018-01-08T15:06:11.928Z,11.48
2018-01-08T15:08:40.744Z,16.70
2018-01-08T15:11:14.320Z,15.77
2018-01-08T15:13:48.948Z,17.15
2018-01-08T15:16:40.884Z,14.85
2018-01-08T15:19:10.577Z,20.67
2018-01-08T15:21:38.669Z,15.73
2018-01-08T15:24:06.694Z,17.98
2018-01-08T15:26:42.128Z,17.87
2018-01-08T15:29:11.140Z,17.87
2018-01-08T15:31:41.196Z,15.25
2018-01-08T15:34:15.864Z,23.02
2018-01-08T15:36:44.877Z,15.95
2018-01-08T15:39:16.496Z,14.13
2018-01-08T15:41:44.528Z,15.80
2018-01-08T15:44:14.213Z,16.75
2018-01-08T15:46:42.276Z,16.37
2018-01-08T15:49:13.724Z,22.08
2018-01-08T15:51:42.676Z,22.05
2018-01-08T15:54:18.844Z,16.02
2018-01-08T15:56:47.892Z,20.05
2018-01-08T15:59:24.312Z,17.00
2018-01-08T16:01:52.348Z,18.40
2018-01-08T16:04:20.428Z,18.23
2018-01-08T16:06:48.488Z,18.12
2018-01-08T16:09:17.447Z,16.23
2018-01-08T16:11:51.265Z,16.62
2018-01-08T16:14:28.088Z,14.32
2018-01-08T16:16:59.772Z,19.10
2018-01-08T16:19:31.668Z,18.55
2018-01-08T16:22:03.284Z,16.87
2018-01-08T16:24:37.100Z,20.55
2018-01-08T16:27:07.085Z,19.40
2018-01-08T16:29:35.100Z,17.48
2018-01-08T16:32:03.141Z,24.17
2018-01-08T16:34:37.232Z,17.50
2018-01-08T16:37:11.160Z,19.30
2018-01-08T16:39:42.132Z,21.58
2018-01-08T16:42:13.877Z,20.05
2018-01-08T16:44:41.892Z,24.92
2018-01-08T16:47:11.857Z,19.50
2018-01-08T16:50:00.789Z,22.92
2018-01-08T16:52:33.588Z,17.90
2018-01-08T16:55:05.368Z,22.20
2018-01-08T16:57:41.788Z,21.00
2018-01-08T17:00:21.836Z,23.20
2018-01-08T17:03:00.252Z,22.23
2018-01-08T17:05:44.880Z,28.95
2018-01-08T17:08:17.034Z,23.38
2018-01-08T17:10:54.492Z,25.12
2018-01-08T17:13:24.506Z,19.77
2018-01-08T17:16:02.924Z,20.42
2018-01-08T17:18:30.948Z,26.40
2018-01-08T17:20:58.956Z,21.17
2018-01-08T17:23:26.980Z,22.67
2018-01-08T17:25:55.952Z,17.02
2018-01-08T17:28:23.992Z,20.37
2018-01-08T17:30:54.024Z,19.35
2018-01-08T17:33:25.096Z,18.87
2018-01-08T17:36:03.547Z,16.70
2018-01-08T17:38:36.760Z,16.08
2018-01-08T17:41:06.777Z,33.30
2018-01-08T17:43:38.228Z,18.20
2018-01-08T17:46:11.904Z,18.25
2018-01-08T17:48:44.904Z,21.90
2018-01-08T17:51:12.924Z,17.12
2018-01-08T17:53:46.972Z,18.12
2018-01-08T17:56:15.080Z,15.90
2018-01-08T17:58:44.008Z,21.02
2018-01-08T18:01:14.012Z,18.65
2018-01-08T18:03:43.976Z,17.40
2018-01-08T18:06:12.892Z,18.90
2018-01-08T18:08:47.993Z,20.17
2018-01-08T18:11:17.956Z,16.87
2018-01-08T18:13:51.420Z,17.30
2018-01-08T18:16:25.516Z,16.20
2018-01-08T18:18:54.207Z,20.85
2018-01-08T18:21:31.509Z,16.73
2018-01-08T18:27:02.544Z,21.73
2018-01-08T18:29:42.949Z,25.77
2018-01-08T18:32:17.540Z,16.52
2018-01-08T18:34:50.432Z,23.45
2018-01-08T18:37:18.612Z,18.70
2018-01-08T18:39:50.540Z,19.62
2018-01-08T18:42:23.519Z,20.95
2018-01-08T18:44:57.067Z,16.75
2018-01-08T18:47:27.156Z,21.50
2018-01-08T18:50:03.475Z,18.05
2018-01-08T18:52:47.716Z,17.55
2018-01-08T18:55:21.276Z,20.35
2018-01-08T18:57:50.219Z,17.55
2018-01-08T19:00:24.568Z,19.45
2018-01-08T19:03:03.391Z,20.00
2018-01-08T19:05:35.115Z,16.87
2018-01-08T19:08:03.783Z,22.58
2018-01-08T19:10:37.463Z,17.20
2018-01-08T19:13:20.999Z,23.35
2018-01-08T19:16:00.578Z,19.98
2018-01-08T19:18:31.479Z,21.35
2018-01-08T19:21:01.699Z,17.37
2018-01-08T19:26:24.943Z,19.65
2018-01-08T19:28:55.279Z,16.90
2018-01-08T19:31:48.639Z,17.45
2018-01-08T19:34:44.143Z,18.83
2018-01-08T19:37:24.775Z,16.85
2018-01-08T19:40:07.211Z,16.58
2018-01-08T19:45:39.035Z,20.20
2018-01-08T19:48:18.671Z,15.20
2018-01-08T19:53:49.082Z,16.08
2018-01-08T19:56:31.535Z,17.15
2018-01-08T19:59:09.859Z,20.20
2018-01-08T20:04:10.551Z,16.80
2018-01-08T20:06:42.947Z,16.90
2018-01-08T20:09:14.859Z,15.27
2018-01-08T20:11:47.555Z,13.98
2018-01-08T20:14:21.963Z,13.77
2018-01-08T20:17:05.180Z,15.50
2018-01-08T20:25:34.771Z,18.00
2018-01-08T20:28:18.979Z,16.65
2018-01-08T20:30:58.575Z,14.35
2018-01-08T20:33:30.599Z,14.45
2018-01-08T20:41:43.899Z,14.05
2018-01-08T20:47:24.375Z,12.68
2018-01-08T20:52:26.864Z,16.55
2018-01-08T21:00:43.171Z,17.33
2018-01-08T21:06:08.838Z,14.60
2018-01-08T21:08:48.123Z,14.30
2018-01-08T21:11:19.758Z,14.77
2018-01-08T21:13:54.895Z,12.13
2018-01-08T21:21:56.475Z,13.50
2018-01-08T21:24:28.887Z,12.75
2018-01-08T21:27:09.357Z,15.43
2018-01-08T21:35:07.315Z,10.38
2018-01-08T21:40:54.254Z,14.05
2018-01-08T21:43:40.047Z,11.35
2018-01-08T21:46:10.283Z,10.43
2018-01-08T21:51:18.346Z,10.60
2018-01-08T21:53:48.911Z,9.13
2018-01-08T21:56:24.535Z,12.35
2018-01-08T22:06:54.094Z,11.88
2018-01-08T22:09:23.562Z,11.45
2018-01-08T22:11:58.762Z,9.30
2018-01-08T22:14:29.106Z,9.93
2018-01-08T22:16:59.223Z,11.32
2018-01-08T22:22:30.930Z,11.48
2018-01-08T22:28:07.894Z,9.95
2018-01-08T22:30:40.530Z,10.75
2018-01-08T22:33:10.434Z,11.38
2018-01-08T22:41:08.491Z,9.95
2018-01-08T22:46:50.450Z,10.60
2018-01-08T22:55:11.098Z,13.13
2018-01-08T22:57:46.498Z,10.55
2018-01-08T23:00:27.358Z,14.18
2018-01-08T23:02:59.866Z,10.73
2018-01-08T23:08:17.401Z,13.52
2018-01-08T23:11:00.214Z,10.65
2018-01-08T23:13:41.374Z,9.32
2018-01-08T23:16:21.418Z,10.77
2018-01-08T23:18:50.634Z,10.05
2018-01-08T23:21:37.870Z,9.65
2018-01-08T23:24:11.606Z,10.27
2018-01-08T23:29:30.438Z,10.63
2018-01-08T23:32:09.670Z,10.35
2018-01-08T23:34:53.222Z,9.48
2018-01-08T23:37:27.462Z,9.35
2018-01-08T23:40:00.630Z,6.82
2018-01-08T23:42:35.338Z,9.35
2018-01-08T23:45:10.553Z,9.82
